WetterOnline ( https://www.wetteronline.de )

Wetter aktuell Rhön (in 800m)

Aktuelles Wetter: Wasserkuppe (925m)

6-stündlich | Neueste Meldungen
Ortszeit Temperatur Wetter
Mi, 19.06. 20:00 22.0° C wolkenlos
Mi, 19.06. 14:00 24.8° C leicht bewölkt
Mi, 19.06. 8:00 18.9° C leicht bewölkt
Mi, 19.06. 2:00 17.2° C leicht bewölkt
Di, 18.06. 20:00 20.1° C wolkig
Di, 18.06. 14:00 23.4° C wolkig
Di, 18.06. 8:00 17.5° C leicht bewölkt
Di, 18.06. 2:00 14.2° C fast wolkenlos
Ortszeit Temperatur Wetter
Mi, 19.06. 23:30 17.2° C leicht bewölkt
Mi, 19.06. 23:20 17.2° C wolkenlos
Mi, 19.06. 23:10 17.5° C wolkenlos
Mi, 19.06. 23:00 17.7° C fast wolkenlos
Mi, 19.06. 22:50 17.7° C leicht bewölkt
Mi, 19.06. 22:40 17.9° C leicht bewölkt
Mi, 19.06. 22:30 18.6° C leicht bewölkt
Mi, 19.06. 22:00 18.8° C leicht bewölkt
Mi, 19.06. 21:30 18.7° C leicht bewölkt
Mi, 19.06. 21:00 19.2° C leicht bewölkt
Mi, 19.06. 20:30 19.9° C leicht bewölkt
Ortszeit Relative Feuchte Sichtweite
Mi, 19.06. 20:00 47% 45 km
Mi, 19.06. 14:00 53% >70 km
Mi, 19.06. 8:00 66% 70 km
Mi, 19.06. 2:00 63% 70 km
Di, 18.06. 20:00 59% 70 km
Di, 18.06. 14:00 56% >70 km
Di, 18.06. 8:00 72% >70 km
Di, 18.06. 2:00 77% 70 km
Ortszeit Relative Feuchte Sichtweite
Mi, 19.06. 23:30 70% 60 km
Mi, 19.06. 23:20 70% -
Mi, 19.06. 23:10 67% -
Mi, 19.06. 23:00 65% 60 km
Mi, 19.06. 22:50 65% -
Mi, 19.06. 22:40 65% -
Mi, 19.06. 22:30 60% 70 km
Mi, 19.06. 22:00 59% >70 km
Mi, 19.06. 21:30 57% >70 km
Mi, 19.06. 21:00 56% >70 km
Mi, 19.06. 20:30 55% >70 km
Ortszeit Niederschlagsmenge Niederschlagsart
Mi, 19.06. 20:00 0.0 l/m2 in 12 Std. -
Mi, 19.06. 14:00 0.0 l/m2 in 6 Std. -
Mi, 19.06. 8:00 0.0 l/m2 in 12 Std. -
Mi, 19.06. 2:00 0.0 l/m2 in 6 Std. -
Di, 18.06. 20:00 0.0 l/m2 in 12 Std. -
Di, 18.06. 14:00 0.0 l/m2 in 6 Std. -
Di, 18.06. 8:00 0.0 l/m2 in 12 Std. -
Di, 18.06. 2:00 0.0 l/m2 in 6 Std. -
Ortszeit Niederschlagsmenge Niederschlagsart
Mi, 19.06. 23:30 0.0 l/m2 in 1 Std. -
Mi, 19.06. 23:20 keine Meldung -
Mi, 19.06. 23:10 keine Meldung -
Mi, 19.06. 23:00 0.0 l/m2 in 1 Std. -
Mi, 19.06. 22:50 keine Meldung -
Mi, 19.06. 22:40 keine Meldung -
Mi, 19.06. 22:30 0.0 l/m2 in 1 Std. -
Mi, 19.06. 22:00 0.0 l/m2 in 1 Std. -
Mi, 19.06. 21:30 0.0 l/m2 in 1 Std. -
Mi, 19.06. 21:00 0.0 l/m2 in 1 Std. -
Mi, 19.06. 20:30 0.0 l/m2 in 1 Std. -
Ortszeit Stärke Spitze Richtung
km/h Bft. km/h Grad Sektor
Mi, 19.06. 20:00 24 4 37 210° SW
Mi, 19.06. 14:00 22 4 40 210° SW
Mi, 19.06. 8:00 15 3 20 180° S
Mi, 19.06. 2:00 14 3 18 170° S
Di, 18.06. 20:00 7 2 37 150° SO
Di, 18.06. 14:00 22 4 32 180° S
Di, 18.06. 8:00 15 3 43 130° SO
Di, 18.06. 2:00 31 5 41 130° SO
Ortszeit Stärke Spitze Richtung
km/h Bft. km/h Grad Sektor
Mi, 19.06. 23:30 17 3 20 230° SW
Mi, 19.06. 23:20 17 3 - 230° SW
Mi, 19.06. 23:10 14 3 - 230° SW
Mi, 19.06. 23:00 14 3 18 220° SW
Mi, 19.06. 22:50 14 3 - 220° SW
Mi, 19.06. 22:40 14 3 - 240° SW
Mi, 19.06. 22:30 13 3 17 240° SW
Mi, 19.06. 22:00 13 3 26 230° SW
Mi, 19.06. 21:30 18 3 25 220° SW
Mi, 19.06. 21:00 20 4 28 230° SW
Mi, 19.06. 20:30 13 3 28 210° SW
Ortszeit Untergrenze Bedeckung Gattung
total tief tief mittel hoch
Mi, 19.06. 20:00 1800 m 0/8 0/8 Cu Ac Ci
Mi, 19.06. 14:00 1290 m 1/8 1/8 Cu Ac -
Mi, 19.06. 8:00 4800 m 6/8 5/8 - As Ci
Mi, 19.06. 2:00 4800 m 5/8 2/8 - Ac Ci
Di, 18.06. 20:00 1080 m 7/8 1/8 Cu Ac Cs
Di, 18.06. 14:00 930 m 4/8 3/8 Cu - Ci
Di, 18.06. 8:00 9000 m 5/8 0/8 - - Ci
Di, 18.06. 2:00 1200 m 1/8 1/8 Sc - -
Ortszeit Bedeckungsgrad in Achtel und Wolkenuntergrenze
Mi, 19.06. 23:30 1(2700m)
Mi, 19.06. 23:20 keine Wolken
Mi, 19.06. 23:10 keine Wolken
Mi, 19.06. 23:00 1(2700m)
Mi, 19.06. 22:50 2(4200m)
Mi, 19.06. 22:40 3(4200m)
Mi, 19.06. 22:30 7(3900m)
Mi, 19.06. 22:00 5(3300m) 8(4200m) 1(1800m)
Mi, 19.06. 21:30 1(1800m) 4(3600m)
Mi, 19.06. 21:00 1(1800m) 3(3600m) 7(6600m)
Mi, 19.06. 20:30 1(1800m)
Ortszeit Stationsdruck (hPa) Tendenz (hPa in 3 Std.)
Mi, 19.06. 20:00 906 - 0,4
Mi, 19.06. 14:00 908 + 0,1
Mi, 19.06. 8:00 908 - 0,1
Mi, 19.06. 2:00 910 - 0,5
Di, 18.06. 20:00 911 - 0,7
Di, 18.06. 14:00 912 - 0,7
Di, 18.06. 8:00 913 - 0,2
Di, 18.06. 2:00 914 - 0,3
Ortszeit Stationsdruck (hPa) Tendenz (hPa in 3 Std.)
Mi, 19.06. 23:30 907 + 0,3
Mi, 19.06. 23:20 907 keine Meldung
Mi, 19.06. 23:10 907 keine Meldung
Mi, 19.06. 23:00 907 + 0,4
Mi, 19.06. 22:50 907 keine Meldung
Mi, 19.06. 22:40 907 keine Meldung
Mi, 19.06. 22:30 907 + 0,6
Mi, 19.06. 22:00 907 + 0,5
Mi, 19.06. 21:30 907 + 0,5
Mi, 19.06. 21:00 906 + 0,3
Mi, 19.06. 20:30 906 0,0
Ortszeit Schneehöhe (cm)
Mi, 19.06. 20:00 0
Mi, 19.06. 14:00 0
Mi, 19.06. 8:00 0
Mi, 19.06. 2:00 0
Di, 18.06. 20:00 0
Di, 18.06. 14:00 0
Di, 18.06. 8:00 0
Di, 18.06. 2:00 0
Ortszeit Schneehöhe (cm)
Mi, 19.06. 23:30 -
Mi, 19.06. 23:20 -
Mi, 19.06. 23:10 -
Mi, 19.06. 23:00 -
Mi, 19.06. 22:50 -
Mi, 19.06. 22:40 -
Mi, 19.06. 22:30 -
Mi, 19.06. 22:00 -
Mi, 19.06. 21:30 -
Mi, 19.06. 21:00 -
Mi, 19.06. 20:30 -
Link zu dieser Seite / Seite empfehlen

Das Wetter in ...